createdAt,value
2023-01-29T00:01:13.164Z,4.90
2023-01-29T00:03:42.244Z,3.90
2023-01-29T00:06:12.222Z,5.50
2023-01-29T00:08:41.116Z,5.50
2023-01-29T00:11:10.463Z,5.50
2023-01-29T00:13:39.442Z,5.80
2023-01-29T00:16:09.098Z,4.80
2023-01-29T00:18:40.506Z,4.60
2023-01-29T00:21:10.956Z,4.90
2023-01-29T00:23:40.420Z,3.70
2023-01-29T00:26:10.109Z,4.40
2023-01-29T00:28:39.699Z,4.80
2023-01-29T00:31:10.212Z,4.60
2023-01-29T00:33:40.439Z,4.40
2023-01-29T00:36:14.258Z,3.90
2023-01-29T00:38:43.891Z,2.90
2023-01-29T00:41:33.544Z,2.40
2023-01-29T00:44:20.833Z,4.30
2023-01-29T00:46:52.042Z,3.50
2023-01-29T00:49:25.100Z,3.70
2023-01-29T00:52:12.213Z,3.80
2023-01-29T00:54:41.532Z,4.10
2023-01-29T00:57:10.411Z,3.90
2023-01-29T00:59:39.606Z,3.40
2023-01-29T01:02:26.641Z,4.10
2023-01-29T01:04:55.864Z,4.10
2023-01-29T01:07:29.514Z,3.80
2023-01-29T01:10:17.174Z,4.40
2023-01-29T01:12:47.807Z,3.70
2023-01-29T01:15:17.280Z,3.20
2023-01-29T01:17:48.337Z,3.50
2023-01-29T01:20:18.106Z,3.30
2023-01-29T01:22:47.133Z,3.50
2023-01-29T01:25:17.141Z,3.40
2023-01-29T01:27:46.663Z,3.40
2023-01-29T01:30:17.450Z,3.90
2023-01-29T01:32:46.792Z,4.30
2023-01-29T01:35:16.057Z,3.50
2023-01-29T01:37:44.936Z,3.90
2023-01-29T01:40:20.554Z,3.90
2023-01-29T01:42:51.568Z,4.20
2023-01-29T01:45:25.419Z,4.10
2023-01-29T01:47:59.565Z,3.70
2023-01-29T01:50:34.560Z,3.90
2023-01-29T01:53:07.870Z,4.00
2023-01-29T01:55:41.090Z,3.60
2023-01-29T01:58:15.855Z,4.40
2023-01-29T02:00:45.256Z,4.40
2023-01-29T02:03:33.108Z,3.60
2023-01-29T02:06:20.511Z,3.90
2023-01-29T02:09:14.752Z,3.50
2023-01-29T02:11:43.577Z,5.10
2023-01-29T02:14:13.647Z,5.00
2023-01-29T02:16:44.176Z,4.70
2023-01-29T02:19:32.905Z,4.40
2023-01-29T02:22:12.469Z,4.60
2023-01-29T02:25:20.966Z,4.80
2023-01-29T02:28:16.163Z,5.40
2023-01-29T02:30:50.530Z,5.10
2023-01-29T02:33:32.070Z,5.20
2023-01-29T02:36:12.139Z,5.10
2023-01-29T02:38:50.213Z,4.60
2023-01-29T02:41:28.858Z,4.40
2023-01-29T02:44:05.858Z,4.60
2023-01-29T02:46:39.744Z,4.70
2023-01-29T02:49:17.999Z,4.40
2023-01-29T02:51:54.816Z,5.50
2023-01-29T02:54:32.411Z,5.80
2023-01-29T02:57:07.957Z,5.20
2023-01-29T02:59:44.053Z,5.10
2023-01-29T03:02:18.931Z,5.00
2023-01-29T03:04:55.117Z,5.10
2023-01-29T03:07:42.091Z,5.70
2023-01-29T03:10:19.557Z,4.70
2023-01-29T03:12:55.306Z,5.10
2023-01-29T03:15:29.307Z,4.80
2023-01-29T03:18:25.628Z,4.60
2023-01-29T03:21:03.556Z,5.10
2023-01-29T03:23:53.370Z,3.90
2023-01-29T03:26:43.547Z,4.90
2023-01-29T03:29:31.433Z,5.20
2023-01-29T03:32:05.248Z,5.20
2023-01-29T03:34:41.470Z,4.90
2023-01-29T03:37:19.099Z,4.10
2023-01-29T03:39:49.137Z,5.00
2023-01-29T03:42:29.473Z,5.00
2023-01-29T03:45:07.699Z,4.20
2023-01-29T03:47:46.837Z,4.50
2023-01-29T03:50:29.037Z,5.00
2023-01-29T03:53:09.075Z,4.60
2023-01-29T03:55:53.795Z,4.10
2023-01-29T03:58:29.536Z,4.40
2023-01-29T04:01:02.780Z,4.50
2023-01-29T04:03:37.318Z,4.70
2023-01-29T04:06:16.755Z,4.70
2023-01-29T04:09:11.858Z,4.80
2023-01-29T04:11:47.926Z,5.00
2023-01-29T04:14:19.378Z,5.10
2023-01-29T04:16:52.417Z,4.60
2023-01-29T04:19:41.730Z,4.60
2023-01-29T04:22:17.272Z,4.30
2023-01-29T04:24:48.546Z,4.80
2023-01-29T04:27:43.341Z,3.80
2023-01-29T04:30:26.172Z,3.60
2023-01-29T04:33:16.523Z,4.00
2023-01-29T04:36:05.610Z,4.70
2023-01-29T04:38:47.445Z,3.80
2023-01-29T04:41:26.017Z,4.20
2023-01-29T04:46:36.338Z,4.10
2023-01-29T04:49:18.515Z,4.60
2023-01-29T04:51:57.003Z,4.80
2023-01-29T04:57:10.315Z,4.50
2023-01-29T04:59:42.917Z,4.60
2023-01-29T05:02:13.223Z,3.70
2023-01-29T05:04:46.483Z,4.70
2023-01-29T05:07:17.708Z,4.50
2023-01-29T05:09:50.095Z,4.20
2023-01-29T05:12:20.210Z,4.40
2023-01-29T05:14:53.554Z,4.90
2023-01-29T05:17:26.486Z,3.90
2023-01-29T05:19:57.398Z,4.20
2023-01-29T05:22:29.824Z,4.90
2023-01-29T05:24:59.137Z,5.10
2023-01-29T05:27:53.145Z,4.90
2023-01-29T05:30:26.269Z,4.80
2023-01-29T05:32:56.845Z,4.60
2023-01-29T05:35:29.856Z,5.10
2023-01-29T05:38:00.000Z,4.40
2023-01-29T05:40:29.489Z,4.90
2023-01-29T05:42:59.532Z,6.00
2023-01-29T05:45:29.343Z,6.10
2023-01-29T05:48:01.208Z,4.70
2023-01-29T05:50:30.192Z,4.60
2023-01-29T05:53:01.962Z,5.80
2023-01-29T05:55:31.559Z,6.00
2023-01-29T05:58:00.415Z,5.10
2023-01-29T06:00:29.451Z,5.20
2023-01-29T06:03:01.546Z,5.80
2023-01-29T06:05:30.561Z,5.00
2023-01-29T06:08:00.580Z,4.80
2023-01-29T06:10:31.751Z,6.20
2023-01-29T06:13:00.861Z,5.90
2023-01-29T06:15:31.544Z,6.20
2023-01-29T06:18:00.967Z,5.40
2023-01-29T06:20:31.133Z,5.50
2023-01-29T06:23:02.419Z,6.00
2023-01-29T06:25:31.445Z,6.30
2023-01-29T06:28:01.067Z,6.00
2023-01-29T06:30:31.555Z,5.20
2023-01-29T06:33:02.204Z,5.50
2023-01-29T06:35:31.829Z,6.20
2023-01-29T06:38:01.435Z,7.00
2023-01-29T06:40:30.694Z,7.00
2023-01-29T06:43:00.968Z,5.50
2023-01-29T06:45:32.103Z,6.00
2023-01-29T06:48:01.926Z,5.80
2023-01-29T06:50:32.872Z,5.50
2023-01-29T06:53:02.021Z,6.20
2023-01-29T06:55:31.245Z,5.70
2023-01-29T06:58:00.417Z,6.40
2023-01-29T07:00:31.499Z,4.70
2023-01-29T07:03:01.771Z,6.30
2023-01-29T07:05:31.663Z,5.40
2023-01-29T07:08:00.660Z,6.30
2023-01-29T07:10:29.961Z,6.00
2023-01-29T07:13:01.700Z,4.60
2023-01-29T07:15:32.140Z,5.30
2023-01-29T07:18:04.245Z,5.60
2023-01-29T07:20:33.281Z,5.00
2023-01-29T07:23:02.213Z,4.90
2023-01-29T07:25:31.148Z,5.80
2023-01-29T07:28:02.060Z,5.10
2023-01-29T07:30:39.101Z,5.60
2023-01-29T07:33:11.329Z,4.90
2023-01-29T07:35:42.129Z,5.30
2023-01-29T07:38:16.382Z,4.40
2023-01-29T07:40:45.400Z,5.90
2023-01-29T07:43:17.441Z,6.80
2023-01-29T07:45:48.059Z,5.20
2023-01-29T07:48:20.158Z,4.90
2023-01-29T07:50:57.030Z,5.80
2023-01-29T07:53:27.834Z,5.40
2023-01-29T07:55:57.539Z,5.70
2023-01-29T07:58:27.790Z,6.20
2023-01-29T08:00:59.684Z,6.40
2023-01-29T08:03:28.907Z,6.20
2023-01-29T08:06:00.284Z,6.00
2023-01-29T08:08:31.073Z,6.10
2023-01-29T08:11:02.213Z,6.20
2023-01-29T08:13:31.145Z,5.80
2023-01-29T08:16:03.356Z,5.50
2023-01-29T08:18:32.662Z,6.00
2023-01-29T08:21:02.056Z,7.40
2023-01-29T08:23:31.083Z,5.80
2023-01-29T08:26:01.932Z,6.10
2023-01-29T08:28:30.781Z,7.40
2023-01-29T08:30:59.792Z,11.40
2023-01-29T08:33:38.397Z,12.20
2023-01-29T08:36:10.375Z,5.70
2023-01-29T08:38:39.347Z,6.20
2023-01-29T08:41:10.807Z,5.90
2023-01-29T08:43:42.459Z,5.50
2023-01-29T08:46:11.387Z,5.70
2023-01-29T08:48:40.155Z,6.80
2023-01-29T08:51:09.863Z,7.50
2023-01-29T08:53:38.598Z,7.20
2023-01-29T08:56:08.548Z,6.60
2023-01-29T08:58:37.238Z,7.50
2023-01-29T09:01:10.796Z,7.20
2023-01-29T09:03:40.433Z,7.70
2023-01-29T09:06:11.634Z,6.60
2023-01-29T09:08:41.375Z,9.10
2023-01-29T09:11:10.694Z,7.30
2023-01-29T09:13:39.455Z,7.30
2023-01-29T09:16:09.270Z,6.20
2023-01-29T09:18:38.099Z,6.30
2023-01-29T09:21:07.502Z,6.10
2023-01-29T09:23:36.180Z,6.10
2023-01-29T09:26:07.014Z,5.70
2023-01-29T09:28:36.233Z,6.70
2023-01-29T09:31:05.331Z,6.10
2023-01-29T09:33:34.827Z,5.90
2023-01-29T09:36:05.037Z,6.30
2023-01-29T09:38:34.290Z,8.70
2023-01-29T09:41:13.223Z,6.20
2023-01-29T09:43:47.820Z,7.90
2023-01-29T09:46:22.788Z,8.70
2023-01-29T09:49:01.257Z,9.00
2023-01-29T09:51:35.839Z,7.90
2023-01-29T09:54:17.296Z,7.10
2023-01-29T09:56:48.250Z,6.80
2023-01-29T09:59:21.478Z,6.60
2023-01-29T10:01:59.740Z,7.00
2023-01-29T10:07:22.492Z,7.00
2023-01-29T10:10:07.214Z,6.30
2023-01-29T10:12:53.245Z,6.50
2023-01-29T10:15:39.158Z,6.30
2023-01-29T10:18:30.322Z,6.50
2023-01-29T10:21:12.579Z,7.00
2023-01-29T10:23:46.550Z,7.20
2023-01-29T10:26:15.774Z,7.20
2023-01-29T10:28:49.637Z,6.20
2023-01-29T10:31:24.803Z,5.70
2023-01-29T10:34:02.746Z,6.60
2023-01-29T10:36:38.995Z,6.10
2023-01-29T10:39:18.395Z,6.10
2023-01-29T10:42:00.982Z,6.10
2023-01-29T10:44:44.345Z,4.60
2023-01-29T10:47:32.725Z,5.90
2023-01-29T10:50:18.635Z,6.50
2023-01-29T10:53:17.058Z,6.90
2023-01-29T10:55:58.388Z,6.40
2023-01-29T10:58:34.400Z,6.50
2023-01-29T11:01:04.020Z,5.50
2023-01-29T11:03:34.305Z,5.40
2023-01-29T11:06:12.639Z,6.30
2023-01-29T11:11:17.091Z,6.60
2023-01-29T11:13:54.171Z,5.70
2023-01-29T11:16:24.990Z,7.10
2023-01-29T11:18:57.434Z,5.40
2023-01-29T11:21:29.636Z,6.50
2023-01-29T11:24:16.333Z,6.50
2023-01-29T11:26:48.594Z,7.60
2023-01-29T11:29:42.031Z,6.60
2023-01-29T11:32:17.597Z,6.50
2023-01-29T11:35:04.622Z,7.60
2023-01-29T11:37:36.538Z,6.60
2023-01-29T11:40:41.810Z,7.60
2023-01-29T11:43:26.200Z,7.40
2023-01-29T11:46:06.373Z,7.50
2023-01-29T11:48:46.135Z,5.40
2023-01-29T11:51:28.124Z,7.30
2023-01-29T11:54:21.790Z,6.90
2023-01-29T11:56:55.788Z,7.50
2023-01-29T11:59:38.463Z,7.20
2023-01-29T12:02:20.700Z,6.90
2023-01-29T12:04:51.208Z,6.30
2023-01-29T12:07:22.446Z,7.90
2023-01-29T12:09:54.966Z,9.00
2023-01-29T12:12:45.263Z,30.40
2023-01-29T12:15:25.217Z,13.40
2023-01-29T12:18:05.971Z,8.30
2023-01-29T12:20:46.260Z,7.60
2023-01-29T12:23:33.181Z,7.60
2023-01-29T12:26:15.535Z,8.90
2023-01-29T12:28:59.999Z,8.40
2023-01-29T12:31:36.877Z,8.30
2023-01-29T12:34:19.805Z,8.90
2023-01-29T12:36:53.028Z,6.90
2023-01-29T12:39:26.904Z,6.90
2023-01-29T12:42:07.721Z,7.80
2023-01-29T12:44:46.005Z,7.50
2023-01-29T12:47:19.465Z,7.80
2023-01-29T12:49:57.439Z,8.50
2023-01-29T12:52:39.352Z,8.00
2023-01-29T12:55:19.108Z,8.40
2023-01-29T12:57:54.372Z,8.70
2023-01-29T13:00:32.381Z,6.70
2023-01-29T13:03:10.919Z,7.80
2023-01-29T13:05:48.364Z,8.60
2023-01-29T13:08:32.143Z,8.00
2023-01-29T13:11:06.856Z,9.20
2023-01-29T13:14:09.149Z,8.70
2023-01-29T13:16:55.665Z,9.10
2023-01-29T13:19:30.424Z,8.30
2023-01-29T13:22:06.270Z,8.00
2023-01-29T13:24:39.907Z,9.00
2023-01-29T13:27:25.714Z,8.40
2023-01-29T13:30:02.332Z,7.50
2023-01-29T13:32:39.589Z,8.70
2023-01-29T13:35:18.641Z,8.70
2023-01-29T13:37:54.183Z,20.40
2023-01-29T13:40:31.024Z,40.20
2023-01-29T13:43:02.290Z,21.50
2023-01-29T13:45:43.209Z,24.60
2023-01-29T13:48:26.059Z,20.20
2023-01-29T13:51:03.344Z,27.90
2023-01-29T13:53:38.266Z,12.80
2023-01-29T13:56:43.023Z,10.20
2023-01-29T13:59:45.197Z,9.80
2023-01-29T14:02:31.109Z,9.30
2023-01-29T14:05:47.809Z,8.10
2023-01-29T14:08:39.351Z,9.00
2023-01-29T14:11:35.240Z,8.90
2023-01-29T14:14:46.639Z,10.80
2023-01-29T14:22:32.633Z,10.90
2023-01-29T14:25:05.361Z,7.60
2023-01-29T14:27:36.905Z,9.30
2023-01-29T14:30:18.518Z,10.70
2023-01-29T14:32:52.210Z,11.10
2023-01-29T14:35:27.490Z,8.70
2023-01-29T14:38:02.510Z,9.60
2023-01-29T14:40:36.366Z,7.60
2023-01-29T14:43:08.239Z,13.30
2023-01-29T14:45:39.248Z,13.90
2023-01-29T14:48:48.682Z,10.80
2023-01-29T14:51:27.843Z,9.50
2023-01-29T14:54:06.363Z,10.10
2023-01-29T14:56:58.145Z,10.10
2023-01-29T14:59:57.297Z,12.20
2023-01-29T15:02:39.571Z,13.90
2023-01-29T15:05:17.300Z,11.90
2023-01-29T15:07:55.024Z,13.00
2023-01-29T15:10:38.165Z,13.00
2023-01-29T15:13:15.919Z,13.60
2023-01-29T15:15:52.066Z,12.20
2023-01-29T15:18:34.838Z,15.50
2023-01-29T15:21:11.170Z,12.20
2023-01-29T15:23:40.739Z,15.00
2023-01-29T15:26:17.161Z,11.60
2023-01-29T15:29:03.068Z,10.40
2023-01-29T15:31:36.095Z,9.10
2023-01-29T15:34:07.437Z,10.90
2023-01-29T15:36:39.644Z,10.90
2023-01-29T15:39:18.144Z,12.40
2023-01-29T15:44:23.127Z,12.80
2023-01-29T15:46:59.593Z,11.90
2023-01-29T15:49:35.134Z,17.90
2023-01-29T15:52:07.936Z,12.10
2023-01-29T15:54:42.106Z,12.60
2023-01-29T15:57:17.882Z,12.20
2023-01-29T15:59:51.562Z,13.00
2023-01-29T16:02:29.786Z,13.10
2023-01-29T16:05:00.075Z,13.40
2023-01-29T16:07:29.920Z,13.90
2023-01-29T16:10:00.489Z,14.90
2023-01-29T16:12:31.148Z,13.70
2023-01-29T16:15:00.842Z,12.50
2023-01-29T16:17:35.124Z,14.70
2023-01-29T16:20:08.048Z,17.10
2023-01-29T16:22:41.723Z,13.90
2023-01-29T16:25:16.197Z,14.90
2023-01-29T16:27:45.837Z,12.50
2023-01-29T16:30:25.840Z,13.80
2023-01-29T16:33:03.793Z,12.10
2023-01-29T16:35:36.614Z,13.40
2023-01-29T16:38:17.545Z,13.20
2023-01-29T16:41:07.903Z,15.70
2023-01-29T16:43:53.102Z,14.70
2023-01-29T16:46:28.670Z,12.20
2023-01-29T16:48:59.174Z,12.30
2023-01-29T16:51:30.252Z,13.40
2023-01-29T16:54:11.048Z,14.60
2023-01-29T16:56:40.817Z,12.40
2023-01-29T16:59:18.630Z,14.30
2023-01-29T17:01:48.964Z,13.90
2023-01-29T17:04:20.093Z,13.10
2023-01-29T17:06:55.750Z,12.60
2023-01-29T17:09:31.378Z,14.70
2023-01-29T17:12:04.401Z,17.00
2023-01-29T17:14:43.624Z,15.60
2023-01-29T17:17:18.022Z,22.70
2023-01-29T17:19:53.293Z,21.20
2023-01-29T17:22:26.127Z,26.00
2023-01-29T17:24:54.955Z,28.30
2023-01-29T17:27:32.626Z,17.90
2023-01-29T17:30:01.457Z,14.00
2023-01-29T17:32:44.304Z,19.70
2023-01-29T17:35:18.485Z,14.40
2023-01-29T17:37:47.925Z,14.70
2023-01-29T17:40:33.032Z,14.40
2023-01-29T17:43:01.719Z,13.50
2023-01-29T17:45:30.642Z,14.70
2023-01-29T17:47:59.923Z,14.50
2023-01-29T17:50:32.042Z,13.50
2023-01-29T17:53:05.111Z,13.30
2023-01-29T17:55:35.739Z,16.00
2023-01-29T17:58:15.165Z,16.00
2023-01-29T18:00:43.828Z,17.20
2023-01-29T18:03:12.633Z,14.60
2023-01-29T18:05:43.536Z,14.00
2023-01-29T18:08:17.771Z,20.00
2023-01-29T18:10:47.374Z,17.60
2023-01-29T18:13:16.719Z,47.00
2023-01-29T18:15:48.208Z,25.90
2023-01-29T18:18:22.479Z,19.00
2023-01-29T18:20:52.115Z,13.70
2023-01-29T18:23:22.272Z,16.60
2023-01-29T18:25:52.396Z,16.00
2023-01-29T18:28:21.437Z,14.70
2023-01-29T18:30:53.333Z,14.50
2023-01-29T18:33:28.827Z,12.40
2023-01-29T18:36:00.783Z,15.30
2023-01-29T18:38:35.733Z,17.50
2023-01-29T18:41:15.186Z,17.30
2023-01-29T18:43:49.385Z,17.70
2023-01-29T18:46:26.568Z,18.80
2023-01-29T18:49:06.298Z,17.70
2023-01-29T18:51:45.320Z,16.70
2023-01-29T18:57:13.272Z,16.50
2023-01-29T18:59:51.659Z,15.30
2023-01-29T19:02:28.063Z,15.60
2023-01-29T19:05:03.262Z,21.60
2023-01-29T19:07:36.851Z,19.50
2023-01-29T19:10:18.886Z,23.20
2023-01-29T19:12:54.962Z,17.50
2023-01-29T19:15:32.276Z,16.00
2023-01-29T19:18:08.980Z,16.50
2023-01-29T19:20:45.371Z,16.00
2023-01-29T19:23:21.931Z,12.50
2023-01-29T19:25:59.133Z,14.00
2023-01-29T19:28:42.115Z,16.20
2023-01-29T19:31:17.526Z,15.40
2023-01-29T19:34:08.411Z,15.20
2023-01-29T19:36:50.307Z,14.60
2023-01-29T19:39:34.644Z,15.10
2023-01-29T19:42:08.877Z,15.70
2023-01-29T19:44:47.987Z,13.40
2023-01-29T19:47:26.912Z,14.30
2023-01-29T19:50:01.965Z,13.80
2023-01-29T19:52:51.263Z,14.40
2023-01-29T19:55:30.101Z,13.80
2023-01-29T19:58:05.694Z,16.60
2023-01-29T20:00:45.307Z,15.40
2023-01-29T20:03:27.916Z,16.30
2023-01-29T20:06:07.712Z,14.20
2023-01-29T20:08:46.652Z,14.60
2023-01-29T20:11:26.024Z,13.60
2023-01-29T20:14:06.873Z,14.60
2023-01-29T20:16:42.141Z,13.20
2023-01-29T20:19:20.801Z,13.60
2023-01-29T20:21:56.595Z,13.90
2023-01-29T20:24:39.649Z,14.00
2023-01-29T20:27:12.469Z,12.70
2023-01-29T20:29:50.028Z,13.40
2023-01-29T20:32:42.997Z,12.40
2023-01-29T20:35:20.433Z,11.90
2023-01-29T20:37:56.198Z,12.10
2023-01-29T20:40:31.350Z,13.80
2023-01-29T20:43:05.034Z,14.20
2023-01-29T20:45:35.625Z,13.80
2023-01-29T20:48:06.764Z,12.70
2023-01-29T20:50:42.388Z,14.40
2023-01-29T20:53:12.992Z,14.50
2023-01-29T20:55:47.007Z,14.00
2023-01-29T20:58:19.011Z,13.70
2023-01-29T21:00:56.403Z,12.30
2023-01-29T21:03:29.253Z,13.50
2023-01-29T21:05:59.460Z,13.80
2023-01-29T21:08:30.747Z,13.10
2023-01-29T21:11:05.542Z,13.90
2023-01-29T21:13:37.473Z,13.10
2023-01-29T21:16:11.597Z,14.30
2023-01-29T21:18:43.938Z,14.10
2023-01-29T21:21:15.149Z,13.50
2023-01-29T21:23:44.984Z,14.80
2023-01-29T21:26:15.701Z,13.10
2023-01-29T21:28:46.726Z,13.30
2023-01-29T21:31:18.672Z,12.40
2023-01-29T21:33:51.282Z,12.80
2023-01-29T21:36:22.900Z,13.20
2023-01-29T21:38:57.751Z,13.20
2023-01-29T21:41:43.744Z,11.90
2023-01-29T21:44:16.066Z,13.00
2023-01-29T21:46:45.259Z,12.90
2023-01-29T21:49:17.014Z,12.10
2023-01-29T21:51:48.468Z,12.70
2023-01-29T21:54:21.634Z,13.30
2023-01-29T21:56:56.835Z,13.00
2023-01-29T21:59:32.623Z,11.50
2023-01-29T22:02:04.186Z,12.70
2023-01-29T22:04:38.600Z,12.70
2023-01-29T22:07:09.757Z,12.50
2023-01-29T22:09:40.609Z,15.00
2023-01-29T22:12:12.019Z,13.80
2023-01-29T22:14:43.187Z,14.40
2023-01-29T22:17:12.795Z,14.10
2023-01-29T22:19:52.328Z,11.80
2023-01-29T22:22:27.335Z,13.40
2023-01-29T22:25:00.666Z,15.00
2023-01-29T22:27:35.123Z,14.00
2023-01-29T22:30:08.559Z,14.20
2023-01-29T22:32:44.603Z,13.90
2023-01-29T22:35:35.077Z,14.20
2023-01-29T22:38:10.259Z,12.80
2023-01-29T22:40:49.506Z,13.50
2023-01-29T22:43:21.440Z,12.90
2023-01-29T22:46:01.343Z,12.60
2023-01-29T22:48:36.931Z,12.60
2023-01-29T22:51:13.506Z,12.50
2023-01-29T22:53:48.562Z,12.80
2023-01-29T22:56:21.656Z,13.30
2023-01-29T22:58:57.330Z,13.80
2023-01-29T23:01:30.782Z,12.30
2023-01-29T23:03:59.744Z,12.50
2023-01-29T23:06:28.487Z,10.30
2023-01-29T23:08:57.573Z,11.30
2023-01-29T23:11:28.794Z,12.60
2023-01-29T23:13:59.341Z,10.90
2023-01-29T23:16:29.608Z,12.00
2023-01-29T23:18:58.616Z,12.50
2023-01-29T23:21:28.843Z,13.40
2023-01-29T23:23:59.027Z,12.40
2023-01-29T23:26:47.387Z,11.40
2023-01-29T23:29:16.577Z,12.00
2023-01-29T23:31:45.327Z,12.70
2023-01-29T23:34:14.544Z,10.80
2023-01-29T23:36:43.977Z,11.60
2023-01-29T23:39:12.989Z,10.70
2023-01-29T23:41:41.650Z,10.50
2023-01-29T23:44:10.605Z,11.20
2023-01-29T23:46:40.203Z,10.20
2023-01-29T23:49:09.241Z,11.40
2023-01-29T23:51:38.111Z,9.20
2023-01-29T23:54:07.253Z,10.40
2023-01-29T23:56:35.908Z,9.20
2023-01-29T23:59:04.921Z,11.60
